sensor_id;sensor_type;location;lat;lon;timestamp;P1;durP1;ratioP1;P2;durP2;ratioP2
19260;SDS011;9764;48.114;11.670;2023-04-06T00:00:34;1.30;;;1.20;;
19260;SDS011;9764;48.114;11.670;2023-04-06T00:03:03;1.60;;;1.50;;
19260;SDS011;9764;48.114;11.670;2023-04-06T00:05:31;1.60;;;1.50;;
19260;SDS011;9764;48.114;11.670;2023-04-06T00:08:00;2.65;;;1.67;;
19260;SDS011;9764;48.114;11.670;2023-04-06T00:10:29;1.70;;;1.55;;
19260;SDS011;9764;48.114;11.670;2023-04-06T00:12:58;1.48;;;1.38;;
19260;SDS011;9764;48.114;11.670;2023-04-06T00:15:27;1.60;;;1.50;;
19260;SDS011;9764;48.114;11.670;2023-04-06T00:17:55;1.70;;;1.60;;
19260;SDS011;9764;48.114;11.670;2023-04-06T00:20:24;1.83;;;1.65;;
19260;SDS011;9764;48.114;11.670;2023-04-06T00:22:53;1.52;;;1.42;;
19260;SDS011;9764;48.114;11.670;2023-04-06T00:25:21;1.60;;;1.30;;
19260;SDS011;9764;48.114;11.670;2023-04-06T00:27:51;1.52;;;1.42;;
19260;SDS011;9764;48.114;11.670;2023-04-06T00:30:20;1.60;;;1.48;;
19260;SDS011;9764;48.114;11.670;2023-04-06T00:32:48;1.40;;;1.25;;
19260;SDS011;9764;48.114;11.670;2023-04-06T00:35:17;1.65;;;1.50;;
19260;SDS011;9764;48.114;11.670;2023-04-06T00:37:46;1.55;;;1.45;;
19260;SDS011;9764;48.114;11.670;2023-04-06T00:40:15;2.38;;;1.58;;
19260;SDS011;9764;48.114;11.670;2023-04-06T00:42:44;2.63;;;1.70;;
19260;SDS011;9764;48.114;11.670;2023-04-06T00:45:14;1.98;;;1.75;;
19260;SDS011;9764;48.114;11.670;2023-04-06T00:47:42;1.52;;;1.33;;
19260;SDS011;9764;48.114;11.670;2023-04-06T00:50:11;1.70;;;1.60;;
19260;SDS011;9764;48.114;11.670;2023-04-06T00:52:39;1.98;;;1.77;;
19260;SDS011;9764;48.114;11.670;2023-04-06T00:55:08;1.55;;;1.45;;
19260;SDS011;9764;48.114;11.670;2023-04-06T00:57:40;1.52;;;1.42;;
19260;SDS011;9764;48.114;11.670;2023-04-06T01:00:09;1.35;;;1.25;;
19260;SDS011;9764;48.114;11.670;2023-04-06T01:02:41;1.85;;;1.70;;
19260;SDS011;9764;48.114;11.670;2023-04-06T01:05:12;1.70;;;1.50;;
19260;SDS011;9764;48.114;11.670;2023-04-06T01:07:49;3.00;;;1.70;;
19260;SDS011;9764;48.114;11.670;2023-04-06T01:10:24;1.60;;;1.50;;
19260;SDS011;9764;48.114;11.670;2023-04-06T01:13:07;1.70;;;1.60;;
19260;SDS011;9764;48.114;11.670;2023-04-06T01:15:45;1.88;;;1.60;;
19260;SDS011;9764;48.114;11.670;2023-04-06T01:18:26;1.63;;;1.30;;
19260;SDS011;9764;48.114;11.670;2023-04-06T01:21:12;1.70;;;1.60;;
19260;SDS011;9764;48.114;11.670;2023-04-06T01:24:01;2.03;;;1.45;;
19260;SDS011;9764;48.114;11.670;2023-04-06T01:26:41;1.73;;;1.30;;
19260;SDS011;9764;48.114;11.670;2023-04-06T01:29:11;1.70;;;1.60;;
19260;SDS011;9764;48.114;11.670;2023-04-06T01:31:39;1.95;;;1.60;;
19260;SDS011;9764;48.114;11.670;2023-04-06T01:34:08;1.90;;;1.80;;
19260;SDS011;9764;48.114;11.670;2023-04-06T01:36:36;1.90;;;1.65;;
19260;SDS011;9764;48.114;11.670;2023-04-06T01:39:20;1.70;;;1.60;;
19260;SDS011;9764;48.114;11.670;2023-04-06T01:41:50;2.75;;;2.10;;
19260;SDS011;9764;48.114;11.670;2023-04-06T01:44:20;1.95;;;1.70;;
19260;SDS011;9764;48.114;11.670;2023-04-06T01:46:57;1.83;;;1.67;;
19260;SDS011;9764;48.114;11.670;2023-04-06T01:49:26;2.10;;;1.90;;
19260;SDS011;9764;48.114;11.670;2023-04-06T01:51:55;1.65;;;1.55;;
19260;SDS011;9764;48.114;11.670;2023-04-06T01:54:25;1.80;;;1.70;;
19260;SDS011;9764;48.114;11.670;2023-04-06T01:57:10;2.13;;;1.70;;
19260;SDS011;9764;48.114;11.670;2023-04-06T01:59:46;2.08;;;1.88;;
19260;SDS011;9764;48.114;11.670;2023-04-06T02:02:21;2.00;;;1.63;;
19260;SDS011;9764;48.114;11.670;2023-04-06T02:05:02;1.65;;;1.55;;
19260;SDS011;9764;48.114;11.670;2023-04-06T02:07:31;1.70;;;1.60;;
19260;SDS011;9764;48.114;11.670;2023-04-06T02:10:02;2.03;;;1.73;;
19260;SDS011;9764;48.114;11.670;2023-04-06T02:12:36;1.80;;;1.70;;
19260;SDS011;9764;48.114;11.670;2023-04-06T02:15:08;2.05;;;1.85;;
19260;SDS011;9764;48.114;11.670;2023-04-06T02:17:39;1.85;;;1.75;;
19260;SDS011;9764;48.114;11.670;2023-04-06T02:20:09;1.63;;;1.52;;
19260;SDS011;9764;48.114;11.670;2023-04-06T02:22:37;1.92;;;1.73;;
19260;SDS011;9764;48.114;11.670;2023-04-06T02:25:08;2.17;;;2.00;;
19260;SDS011;9764;48.114;11.670;2023-04-06T02:27:38;2.15;;;1.98;;
19260;SDS011;9764;48.114;11.670;2023-04-06T02:30:06;2.17;;;1.95;;
19260;SDS011;9764;48.114;11.670;2023-04-06T02:32:35;2.13;;;1.70;;
19260;SDS011;9764;48.114;11.670;2023-04-06T02:35:04;1.80;;;1.70;;
19260;SDS011;9764;48.114;11.670;2023-04-06T02:37:34;2.10;;;1.90;;
19260;SDS011;9764;48.114;11.670;2023-04-06T02:40:03;2.03;;;1.83;;
19260;SDS011;9764;48.114;11.670;2023-04-06T02:42:34;1.90;;;1.80;;
19260;SDS011;9764;48.114;11.670;2023-04-06T02:45:03;2.08;;;1.80;;
19260;SDS011;9764;48.114;11.670;2023-04-06T02:47:38;1.75;;;1.65;;
19260;SDS011;9764;48.114;11.670;2023-04-06T02:50:07;1.90;;;1.67;;
19260;SDS011;9764;48.114;11.670;2023-04-06T02:52:44;2.38;;;2.13;;
19260;SDS011;9764;48.114;11.670;2023-04-06T02:55:12;2.30;;;2.10;;
19260;SDS011;9764;48.114;11.670;2023-04-06T02:57:42;2.00;;;1.80;;
19260;SDS011;9764;48.114;11.670;2023-04-06T03:00:11;1.95;;;1.85;;
19260;SDS011;9764;48.114;11.670;2023-04-06T03:02:40;2.00;;;1.80;;
19260;SDS011;9764;48.114;11.670;2023-04-06T03:05:13;2.22;;;2.03;;
19260;SDS011;9764;48.114;11.670;2023-04-06T03:07:43;1.98;;;1.80;;
19260;SDS011;9764;48.114;11.670;2023-04-06T03:10:19;2.10;;;1.90;;
19260;SDS011;9764;48.114;11.670;2023-04-06T03:12:49;2.22;;;2.03;;
19260;SDS011;9764;48.114;11.670;2023-04-06T03:15:21;2.20;;;2.00;;
19260;SDS011;9764;48.114;11.670;2023-04-06T03:17:55;3.33;;;2.00;;
19260;SDS011;9764;48.114;11.670;2023-04-06T03:20:39;2.15;;;1.95;;
19260;SDS011;9764;48.114;11.670;2023-04-06T03:23:09;2.00;;;1.80;;
19260;SDS011;9764;48.114;11.670;2023-04-06T03:25:40;1.92;;;1.75;;
19260;SDS011;9764;48.114;11.670;2023-04-06T03:28:15;2.28;;;2.00;;
19260;SDS011;9764;48.114;11.670;2023-04-06T03:30:49;1.75;;;1.65;;
19260;SDS011;9764;48.114;11.670;2023-04-06T03:33:26;2.08;;;1.90;;
19260;SDS011;9764;48.114;11.670;2023-04-06T03:35:55;2.20;;;2.00;;
19260;SDS011;9764;48.114;11.670;2023-04-06T03:38:25;2.40;;;1.98;;
19260;SDS011;9764;48.114;11.670;2023-04-06T03:40:54;2.38;;;2.05;;
19260;SDS011;9764;48.114;11.670;2023-04-06T03:43:27;2.95;;;2.00;;
19260;SDS011;9764;48.114;11.670;2023-04-06T03:45:55;2.00;;;1.80;;
19260;SDS011;9764;48.114;11.670;2023-04-06T03:48:24;3.15;;;2.13;;
19260;SDS011;9764;48.114;11.670;2023-04-06T03:50:52;2.15;;;1.90;;
19260;SDS011;9764;48.114;11.670;2023-04-06T03:53:21;1.80;;;1.70;;
19260;SDS011;9764;48.114;11.670;2023-04-06T03:55:49;2.22;;;1.95;;
19260;SDS011;9764;48.114;11.670;2023-04-06T03:58:18;2.17;;;1.92;;
19260;SDS011;9764;48.114;11.670;2023-04-06T04:00:47;3.50;;;1.70;;
19260;SDS011;9764;48.114;11.670;2023-04-06T04:03:16;2.13;;;1.77;;
19260;SDS011;9764;48.114;11.670;2023-04-06T04:05:44;1.80;;;1.70;;
19260;SDS011;9764;48.114;11.670;2023-04-06T04:08:13;2.72;;;2.00;;
19260;SDS011;9764;48.114;11.670;2023-04-06T04:10:41;2.58;;;2.00;;
19260;SDS011;9764;48.114;11.670;2023-04-06T04:13:10;3.78;;;2.00;;
19260;SDS011;9764;48.114;11.670;2023-04-06T04:15:40;2.08;;;1.88;;
19260;SDS011;9764;48.114;11.670;2023-04-06T04:18:10;2.40;;;1.98;;
19260;SDS011;9764;48.114;11.670;2023-04-06T04:20:38;2.40;;;1.90;;
19260;SDS011;9764;48.114;11.670;2023-04-06T04:23:09;3.00;;;1.80;;
19260;SDS011;9764;48.114;11.670;2023-04-06T04:25:38;4.63;;;1.95;;
19260;SDS011;9764;48.114;11.670;2023-04-06T04:28:06;2.58;;;1.90;;
19260;SDS011;9764;48.114;11.670;2023-04-06T04:30:36;1.80;;;1.70;;
19260;SDS011;9764;48.114;11.670;2023-04-06T04:33:10;2.63;;;2.10;;
19260;SDS011;9764;48.114;11.670;2023-04-06T04:35:40;2.17;;;1.98;;
19260;SDS011;9764;48.114;11.670;2023-04-06T04:38:12;1.85;;;1.75;;
19260;SDS011;9764;48.114;11.670;2023-04-06T04:40:42;2.05;;;1.80;;
19260;SDS011;9764;48.114;11.670;2023-04-06T04:43:11;3.17;;;1.98;;
19260;SDS011;9764;48.114;11.670;2023-04-06T04:45:39;1.77;;;1.67;;
19260;SDS011;9764;48.114;11.670;2023-04-06T04:48:22;2.15;;;1.95;;
19260;SDS011;9764;48.114;11.670;2023-04-06T04:51:00;2.40;;;2.20;;
19260;SDS011;9764;48.114;11.670;2023-04-06T04:53:40;1.80;;;1.70;;
19260;SDS011;9764;48.114;11.670;2023-04-06T04:56:18;1.90;;;1.80;;
19260;SDS011;9764;48.114;11.670;2023-04-06T04:58:51;3.50;;;2.40;;
19260;SDS011;9764;48.114;11.670;2023-04-06T05:01:19;2.03;;;1.70;;
19260;SDS011;9764;48.114;11.670;2023-04-06T05:03:50;2.42;;;2.00;;
19260;SDS011;9764;48.114;11.670;2023-04-06T05:06:19;2.20;;;2.00;;
19260;SDS011;9764;48.114;11.670;2023-04-06T05:08:47;2.15;;;1.70;;
19260;SDS011;9764;48.114;11.670;2023-04-06T05:11:16;2.50;;;1.85;;
19260;SDS011;9764;48.114;11.670;2023-04-06T05:13:51;1.83;;;1.65;;
19260;SDS011;9764;48.114;11.670;2023-04-06T05:16:23;1.60;;;1.50;;
19260;SDS011;9764;48.114;11.670;2023-04-06T05:18:53;3.28;;;1.85;;
19260;SDS011;9764;48.114;11.670;2023-04-06T05:21:26;2.70;;;1.67;;
19260;SDS011;9764;48.114;11.670;2023-04-06T05:24:06;1.80;;;1.70;;
19260;SDS011;9764;48.114;11.670;2023-04-06T05:26:35;2.90;;;1.90;;
19260;SDS011;9764;48.114;11.670;2023-04-06T05:29:10;1.60;;;1.50;;
19260;SDS011;9764;48.114;11.670;2023-04-06T05:31:40;2.05;;;1.90;;
19260;SDS011;9764;48.114;11.670;2023-04-06T05:34:10;2.55;;;1.90;;
19260;SDS011;9764;48.114;11.670;2023-04-06T05:36:39;2.60;;;1.85;;
19260;SDS011;9764;48.114;11.670;2023-04-06T05:39:16;1.98;;;1.83;;
19260;SDS011;9764;48.114;11.670;2023-04-06T05:41:49;2.50;;;1.88;;
19260;SDS011;9764;48.114;11.670;2023-04-06T05:44:28;2.00;;;1.88;;
19260;SDS011;9764;48.114;11.670;2023-04-06T05:47:05;1.77;;;1.67;;
19260;SDS011;9764;48.114;11.670;2023-04-06T05:49:37;2.60;;;1.98;;
19260;SDS011;9764;48.114;11.670;2023-04-06T05:52:11;2.05;;;1.85;;
19260;SDS011;9764;48.114;11.670;2023-04-06T05:54:43;2.90;;;2.00;;
19260;SDS011;9764;48.114;11.670;2023-04-06T05:57:12;2.80;;;2.00;;
19260;SDS011;9764;48.114;11.670;2023-04-06T05:59:41;1.92;;;1.80;;
19260;SDS011;9764;48.114;11.670;2023-04-06T06:02:11;2.13;;;1.85;;
19260;SDS011;9764;48.114;11.670;2023-04-06T06:04:44;1.90;;;1.70;;
19260;SDS011;9764;48.114;11.670;2023-04-06T06:07:14;2.25;;;2.05;;
19260;SDS011;9764;48.114;11.670;2023-04-06T06:09:48;1.90;;;1.70;;
19260;SDS011;9764;48.114;11.670;2023-04-06T06:12:22;3.00;;;1.90;;
19260;SDS011;9764;48.114;11.670;2023-04-06T06:14:50;2.08;;;1.88;;
19260;SDS011;9764;48.114;11.670;2023-04-06T06:17:20;2.08;;;1.70;;
19260;SDS011;9764;48.114;11.670;2023-04-06T06:19:51;1.65;;;1.55;;
19260;SDS011;9764;48.114;11.670;2023-04-06T06:22:19;1.85;;;1.60;;
19260;SDS011;9764;48.114;11.670;2023-04-06T06:24:49;1.83;;;1.60;;
19260;SDS011;9764;48.114;11.670;2023-04-06T06:27:19;3.05;;;1.98;;
19260;SDS011;9764;48.114;11.670;2023-04-06T06:29:47;1.80;;;1.70;;
19260;SDS011;9764;48.114;11.670;2023-04-06T06:32:16;1.90;;;1.70;;
19260;SDS011;9764;48.114;11.670;2023-04-06T06:34:49;1.98;;;1.55;;
19260;SDS011;9764;48.114;11.670;2023-04-06T06:37:18;3.00;;;1.85;;
19260;SDS011;9764;48.114;11.670;2023-04-06T06:39:48;3.08;;;2.10;;
19260;SDS011;9764;48.114;11.670;2023-04-06T06:42:19;1.98;;;1.80;;
19260;SDS011;9764;48.114;11.670;2023-04-06T06:45:01;1.70;;;1.60;;
19260;SDS011;9764;48.114;11.670;2023-04-06T06:47:29;1.85;;;1.73;;
19260;SDS011;9764;48.114;11.670;2023-04-06T06:49:59;1.88;;;1.67;;
19260;SDS011;9764;48.114;11.670;2023-04-06T06:52:29;2.30;;;2.00;;
19260;SDS011;9764;48.114;11.670;2023-04-06T06:54:58;2.08;;;1.80;;
19260;SDS011;9764;48.114;11.670;2023-04-06T06:57:27;1.70;;;1.60;;
19260;SDS011;9764;48.114;11.670;2023-04-06T06:59:56;1.60;;;1.50;;
19260;SDS011;9764;48.114;11.670;2023-04-06T07:02:27;1.85;;;1.75;;
19260;SDS011;9764;48.114;11.670;2023-04-06T07:04:56;2.08;;;1.60;;
19260;SDS011;9764;48.114;11.670;2023-04-06T07:07:26;1.80;;;1.70;;
19260;SDS011;9764;48.114;11.670;2023-04-06T07:09:55;1.58;;;1.42;;
19260;SDS011;9764;48.114;11.670;2023-04-06T07:12:23;2.00;;;1.85;;
19260;SDS011;9764;48.114;11.670;2023-04-06T07:14:52;2.00;;;1.70;;
19260;SDS011;9764;48.114;11.670;2023-04-06T07:17:20;2.58;;;1.95;;
19260;SDS011;9764;48.114;11.670;2023-04-06T07:19:49;1.75;;;1.60;;
19260;SDS011;9764;48.114;11.670;2023-04-06T07:22:17;1.83;;;1.67;;
19260;SDS011;9764;48.114;11.670;2023-04-06T07:24:47;1.92;;;1.73;;
19260;SDS011;9764;48.114;11.670;2023-04-06T07:27:16;1.80;;;1.70;;
19260;SDS011;9764;48.114;11.670;2023-04-06T07:29:45;2.60;;;2.10;;
19260;SDS011;9764;48.114;11.670;2023-04-06T07:32:14;3.22;;;2.22;;
19260;SDS011;9764;48.114;11.670;2023-04-06T07:34:42;2.75;;;2.00;;
19260;SDS011;9764;48.114;11.670;2023-04-06T07:37:12;1.98;;;1.67;;
19260;SDS011;9764;48.114;11.670;2023-04-06T07:39:41;1.80;;;1.70;;
19260;SDS011;9764;48.114;11.670;2023-04-06T07:42:12;2.22;;;1.80;;
19260;SDS011;9764;48.114;11.670;2023-04-06T07:44:42;1.70;;;1.60;;
19260;SDS011;9764;48.114;11.670;2023-04-06T07:47:10;2.17;;;1.98;;
19260;SDS011;9764;48.114;11.670;2023-04-06T07:49:39;1.80;;;1.70;;
19260;SDS011;9764;48.114;11.670;2023-04-06T07:52:08;3.72;;;2.10;;
19260;SDS011;9764;48.114;11.670;2023-04-06T07:54:36;2.08;;;1.70;;
19260;SDS011;9764;48.114;11.670;2023-04-06T07:57:05;1.67;;;1.58;;
19260;SDS011;9764;48.114;11.670;2023-04-06T07:59:34;2.10;;;1.90;;
19260;SDS011;9764;48.114;11.670;2023-04-06T08:02:03;2.05;;;1.88;;
19260;SDS011;9764;48.114;11.670;2023-04-06T08:04:31;2.22;;;1.83;;
19260;SDS011;9764;48.114;11.670;2023-04-06T08:07:00;1.60;;;1.50;;
19260;SDS011;9764;48.114;11.670;2023-04-06T08:09:28;2.05;;;1.80;;
19260;SDS011;9764;48.114;11.670;2023-04-06T08:11:57;1.95;;;1.85;;
19260;SDS011;9764;48.114;11.670;2023-04-06T08:14:25;1.58;;;1.48;;
19260;SDS011;9764;48.114;11.670;2023-04-06T08:16:55;1.80;;;1.70;;
19260;SDS011;9764;48.114;11.670;2023-04-06T08:19:24;2.03;;;1.83;;
19260;SDS011;9764;48.114;11.670;2023-04-06T08:21:52;2.00;;;1.80;;
19260;SDS011;9764;48.114;11.670;2023-04-06T08:24:21;2.17;;;1.90;;
19260;SDS011;9764;48.114;11.670;2023-04-06T08:26:49;1.73;;;1.60;;
19260;SDS011;9764;48.114;11.670;2023-04-06T08:29:18;1.77;;;1.60;;
19260;SDS011;9764;48.114;11.670;2023-04-06T08:31:46;2.05;;;1.85;;
19260;SDS011;9764;48.114;11.670;2023-04-06T08:34:16;2.28;;;2.08;;
19260;SDS011;9764;48.114;11.670;2023-04-06T08:36:45;2.90;;;2.20;;
19260;SDS011;9764;48.114;11.670;2023-04-06T08:39:13;1.50;;;1.40;;
19260;SDS011;9764;48.114;11.670;2023-04-06T08:41:42;1.73;;;1.60;;
19260;SDS011;9764;48.114;11.670;2023-04-06T08:44:10;2.08;;;1.63;;
19260;SDS011;9764;48.114;11.670;2023-04-06T08:46:39;1.90;;;1.60;;
19260;SDS011;9764;48.114;11.670;2023-04-06T08:49:07;2.05;;;1.85;;
19260;SDS011;9764;48.114;11.670;2023-04-06T08:51:38;2.00;;;1.80;;
19260;SDS011;9764;48.114;11.670;2023-04-06T08:54:07;1.80;;;1.60;;
19260;SDS011;9764;48.114;11.670;2023-04-06T08:56:37;1.77;;;1.67;;
19260;SDS011;9764;48.114;11.670;2023-04-06T08:59:06;1.65;;;1.55;;
19260;SDS011;9764;48.114;11.670;2023-04-06T09:01:38;2.25;;;1.90;;
19260;SDS011;9764;48.114;11.670;2023-04-06T09:04:08;1.98;;;1.77;;
19260;SDS011;9764;48.114;11.670;2023-04-06T09:06:40;2.15;;;1.95;;
19260;SDS011;9764;48.114;11.670;2023-04-06T09:09:09;2.30;;;1.90;;
19260;SDS011;9764;48.114;11.670;2023-04-06T09:11:42;1.80;;;1.70;;
19260;SDS011;9764;48.114;11.670;2023-04-06T09:14:12;1.60;;;1.50;;
19260;SDS011;9764;48.114;11.670;2023-04-06T09:16:41;2.10;;;1.80;;
19260;SDS011;9764;48.114;11.670;2023-04-06T09:19:11;1.67;;;1.58;;
19260;SDS011;9764;48.114;11.670;2023-04-06T09:21:41;2.90;;;1.98;;
19260;SDS011;9764;48.114;11.670;2023-04-06T09:24:10;2.00;;;1.80;;
19260;SDS011;9764;48.114;11.670;2023-04-06T09:26:45;2.05;;;1.83;;
19260;SDS011;9764;48.114;11.670;2023-04-06T09:29:23;1.90;;;1.80;;
19260;SDS011;9764;48.114;11.670;2023-04-06T09:32:01;2.10;;;1.90;;
19260;SDS011;9764;48.114;11.670;2023-04-06T09:34:30;2.00;;;1.65;;
19260;SDS011;9764;48.114;11.670;2023-04-06T09:37:12;2.58;;;1.70;;
19260;SDS011;9764;48.114;11.670;2023-04-06T09:39:41;1.63;;;1.52;;
19260;SDS011;9764;48.114;11.670;2023-04-06T09:42:11;2.03;;;1.70;;
19260;SDS011;9764;48.114;11.670;2023-04-06T09:44:40;2.03;;;1.83;;
19260;SDS011;9764;48.114;11.670;2023-04-06T09:47:08;3.13;;;1.88;;
19260;SDS011;9764;48.114;11.670;2023-04-06T09:49:37;2.00;;;1.80;;
19260;SDS011;9764;48.114;11.670;2023-04-06T09:52:06;1.70;;;1.60;;
19260;SDS011;9764;48.114;11.670;2023-04-06T09:54:37;2.00;;;1.80;;
19260;SDS011;9764;48.114;11.670;2023-04-06T09:57:07;1.88;;;1.70;;
19260;SDS011;9764;48.114;11.670;2023-04-06T09:59:43;2.05;;;1.77;;
19260;SDS011;9764;48.114;11.670;2023-04-06T10:02:15;1.70;;;1.60;;
19260;SDS011;9764;48.114;11.670;2023-04-06T10:04:53;1.70;;;1.60;;
19260;SDS011;9764;48.114;11.670;2023-04-06T10:07:26;1.85;;;1.60;;
19260;SDS011;9764;48.114;11.670;2023-04-06T10:09:56;1.63;;;1.50;;
19260;SDS011;9764;48.114;11.670;2023-04-06T10:12:26;1.92;;;1.58;;
19260;SDS011;9764;48.114;11.670;2023-04-06T10:14:55;1.83;;;1.60;;
19260;SDS011;9764;48.114;11.670;2023-04-06T10:17:24;2.13;;;1.80;;
19260;SDS011;9764;48.114;11.670;2023-04-06T10:19:53;2.22;;;1.75;;
19260;SDS011;9764;48.114;11.670;2023-04-06T10:22:26;1.65;;;1.52;;
19260;SDS011;9764;48.114;11.670;2023-04-06T10:25:01;1.92;;;1.70;;
19260;SDS011;9764;48.114;11.670;2023-04-06T10:27:30;2.00;;;1.58;;
19260;SDS011;9764;48.114;11.670;2023-04-06T10:30:00;1.75;;;1.65;;
19260;SDS011;9764;48.114;11.670;2023-04-06T10:32:34;1.65;;;1.50;;
19260;SDS011;9764;48.114;11.670;2023-04-06T10:35:07;1.80;;;1.70;;
19260;SDS011;9764;48.114;11.670;2023-04-06T10:37:46;1.65;;;1.55;;
19260;SDS011;9764;48.114;11.670;2023-04-06T10:40:23;2.17;;;1.48;;
19260;SDS011;9764;48.114;11.670;2023-04-06T10:42:53;2.28;;;1.60;;
19260;SDS011;9764;48.114;11.670;2023-04-06T10:45:24;1.55;;;1.45;;
19260;SDS011;9764;48.114;11.670;2023-04-06T10:47:54;1.70;;;1.60;;
19260;SDS011;9764;48.114;11.670;2023-04-06T10:50:23;1.70;;;1.60;;
19260;SDS011;9764;48.114;11.670;2023-04-06T10:52:58;1.80;;;1.45;;
19260;SDS011;9764;48.114;11.670;2023-04-06T10:55:29;1.80;;;1.70;;
19260;SDS011;9764;48.114;11.670;2023-04-06T10:57:58;1.80;;;1.65;;
19260;SDS011;9764;48.114;11.670;2023-04-06T11:00:27;1.63;;;1.52;;
19260;SDS011;9764;48.114;11.670;2023-04-06T11:03:15;1.65;;;1.40;;
19260;SDS011;9764;48.114;11.670;2023-04-06T11:05:43;1.58;;;1.42;;
19260;SDS011;9764;48.114;11.670;2023-04-06T11:08:24;1.70;;;1.60;;
19260;SDS011;9764;48.114;11.670;2023-04-06T11:11:04;2.17;;;1.75;;
19260;SDS011;9764;48.114;11.670;2023-04-06T11:13:38;1.60;;;1.50;;
19260;SDS011;9764;48.114;11.670;2023-04-06T11:16:12;1.75;;;1.65;;
19260;SDS011;9764;48.114;11.670;2023-04-06T11:18:52;1.63;;;1.52;;
19260;SDS011;9764;48.114;11.670;2023-04-06T11:21:32;1.55;;;1.40;;
19260;SDS011;9764;48.114;11.670;2023-04-06T11:24:08;1.70;;;1.50;;
19260;SDS011;9764;48.114;11.670;2023-04-06T11:26:39;1.67;;;1.58;;
19260;SDS011;9764;48.114;11.670;2023-04-06T11:29:10;1.70;;;1.60;;
19260;SDS011;9764;48.114;11.670;2023-04-06T11:31:43;1.98;;;1.70;;
19260;SDS011;9764;48.114;11.670;2023-04-06T11:34:15;1.60;;;1.50;;
19260;SDS011;9764;48.114;11.670;2023-04-06T11:36:45;2.72;;;1.75;;
19260;SDS011;9764;48.114;11.670;2023-04-06T11:39:18;2.47;;;1.77;;
19260;SDS011;9764;48.114;11.670;2023-04-06T11:41:51;1.60;;;1.30;;
19260;SDS011;9764;48.114;11.670;2023-04-06T11:44:28;1.55;;;1.40;;
19260;SDS011;9764;48.114;11.670;2023-04-06T11:47:00;1.58;;;1.48;;
19260;SDS011;9764;48.114;11.670;2023-04-06T11:49:29;1.95;;;1.50;;
19260;SDS011;9764;48.114;11.670;2023-04-06T11:51:58;1.88;;;1.52;;
19260;SDS011;9764;48.114;11.670;2023-04-06T11:54:31;1.88;;;1.67;;
19260;SDS011;9764;48.114;11.670;2023-04-06T11:57:03;1.63;;;1.50;;
19260;SDS011;9764;48.114;11.670;2023-04-06T11:59:32;1.55;;;1.33;;
19260;SDS011;9764;48.114;11.670;2023-04-06T12:02:01;1.95;;;1.60;;
19260;SDS011;9764;48.114;11.670;2023-04-06T12:04:30;1.88;;;1.50;;
19260;SDS011;9764;48.114;11.670;2023-04-06T12:06:59;1.90;;;1.52;;
19260;SDS011;9764;48.114;11.670;2023-04-06T12:09:28;1.70;;;1.60;;
19260;SDS011;9764;48.114;11.670;2023-04-06T12:11:57;1.60;;;1.50;;
19260;SDS011;9764;48.114;11.670;2023-04-06T12:14:27;2.03;;;1.60;;
19260;SDS011;9764;48.114;11.670;2023-04-06T12:16:57;1.50;;;1.35;;
19260;SDS011;9764;48.114;11.670;2023-04-06T12:19:25;2.05;;;1.20;;
19260;SDS011;9764;48.114;11.670;2023-04-06T12:21:56;1.20;;;1.10;;
19260;SDS011;9764;48.114;11.670;2023-04-06T12:24:25;1.73;;;1.63;;
19260;SDS011;9764;48.114;11.670;2023-04-06T12:26:54;1.85;;;1.60;;
19260;SDS011;9764;48.114;11.670;2023-04-06T12:29:36;1.52;;;1.40;;
19260;SDS011;9764;48.114;11.670;2023-04-06T12:32:05;1.65;;;1.52;;
19260;SDS011;9764;48.114;11.670;2023-04-06T12:34:34;1.67;;;1.50;;
19260;SDS011;9764;48.114;11.670;2023-04-06T12:37:03;1.60;;;1.50;;
19260;SDS011;9764;48.114;11.670;2023-04-06T12:39:31;1.75;;;1.30;;
19260;SDS011;9764;48.114;11.670;2023-04-06T12:42:00;1.42;;;1.33;;
19260;SDS011;9764;48.114;11.670;2023-04-06T12:44:29;1.90;;;1.40;;
19260;SDS011;9764;48.114;11.670;2023-04-06T12:46:59;1.92;;;1.42;;
19260;SDS011;9764;48.114;11.670;2023-04-06T12:49:27;1.45;;;1.35;;
19260;SDS011;9764;48.114;11.670;2023-04-06T12:51:57;1.40;;;1.30;;
19260;SDS011;9764;48.114;11.670;2023-04-06T12:54:27;1.52;;;1.40;;
19260;SDS011;9764;48.114;11.670;2023-04-06T12:56:55;1.50;;;1.35;;
19260;SDS011;9764;48.114;11.670;2023-04-06T12:59:24;1.35;;;1.25;;
19260;SDS011;9764;48.114;11.670;2023-04-06T13:01:53;1.83;;;1.30;;
19260;SDS011;9764;48.114;11.670;2023-04-06T13:04:23;2.20;;;1.73;;
19260;SDS011;9764;48.114;11.670;2023-04-06T13:06:51;1.40;;;1.30;;
19260;SDS011;9764;48.114;11.670;2023-04-06T13:09:19;1.40;;;1.30;;
19260;SDS011;9764;48.114;11.670;2023-04-06T13:11:48;1.95;;;1.60;;
19260;SDS011;9764;48.114;11.670;2023-04-06T13:14:17;1.42;;;1.33;;
19260;SDS011;9764;48.114;11.670;2023-04-06T13:16:45;1.42;;;1.33;;
19260;SDS011;9764;48.114;11.670;2023-04-06T13:19:14;1.42;;;1.30;;
19260;SDS011;9764;48.114;11.670;2023-04-06T13:21:44;1.45;;;1.30;;
19260;SDS011;9764;48.114;11.670;2023-04-06T13:24:13;1.63;;;1.40;;
19260;SDS011;9764;48.114;11.670;2023-04-06T13:26:43;1.80;;;1.40;;
19260;SDS011;9764;48.114;11.670;2023-04-06T13:29:11;1.65;;;1.35;;
19260;SDS011;9764;48.114;11.670;2023-04-06T13:31:40;1.40;;;1.20;;
19260;SDS011;9764;48.114;11.670;2023-04-06T13:34:08;1.80;;;1.40;;
19260;SDS011;9764;48.114;11.670;2023-04-06T13:36:37;1.60;;;1.50;;
19260;SDS011;9764;48.114;11.670;2023-04-06T13:39:09;2.50;;;1.40;;
19260;SDS011;9764;48.114;11.670;2023-04-06T13:41:37;1.77;;;1.25;;
19260;SDS011;9764;48.114;11.670;2023-04-06T13:44:06;1.75;;;1.30;;
19260;SDS011;9764;48.114;11.670;2023-04-06T13:46:35;1.35;;;1.25;;
19260;SDS011;9764;48.114;11.670;2023-04-06T13:49:04;1.60;;;1.10;;
19260;SDS011;9764;48.114;11.670;2023-04-06T13:51:33;1.50;;;1.23;;
19260;SDS011;9764;48.114;11.670;2023-04-06T13:54:01;1.30;;;1.10;;
19260;SDS011;9764;48.114;11.670;2023-04-06T13:56:31;1.40;;;1.20;;
19260;SDS011;9764;48.114;11.670;2023-04-06T13:59:00;1.45;;;1.23;;
19260;SDS011;9764;48.114;11.670;2023-04-06T14:01:28;1.40;;;1.30;;
19260;SDS011;9764;48.114;11.670;2023-04-06T14:03:56;1.40;;;1.30;;
19260;SDS011;9764;48.114;11.670;2023-04-06T14:06:25;1.30;;;1.20;;
19260;SDS011;9764;48.114;11.670;2023-04-06T14:08:57;1.52;;;1.42;;
19260;SDS011;9764;48.114;11.670;2023-04-06T14:11:26;1.45;;;1.25;;
19260;SDS011;9764;48.114;11.670;2023-04-06T14:13:55;1.35;;;1.20;;
19260;SDS011;9764;48.114;11.670;2023-04-06T14:16:24;1.25;;;1.15;;
19260;SDS011;9764;48.114;11.670;2023-04-06T14:18:53;2.15;;;1.10;;
19260;SDS011;9764;48.114;11.670;2023-04-06T14:21:24;1.65;;;1.10;;
19260;SDS011;9764;48.114;11.670;2023-04-06T14:23:52;1.30;;;1.20;;
19260;SDS011;9764;48.114;11.670;2023-04-06T14:26:25;1.80;;;1.10;;
19260;SDS011;9764;48.114;11.670;2023-04-06T14:28:54;1.65;;;1.23;;
19260;SDS011;9764;48.114;11.670;2023-04-06T14:31:23;1.30;;;1.20;;
19260;SDS011;9764;48.114;11.670;2023-04-06T14:33:52;1.10;;;1.00;;
19260;SDS011;9764;48.114;11.670;2023-04-06T14:36:21;1.88;;;1.25;;
19260;SDS011;9764;48.114;11.670;2023-04-06T14:38:50;1.25;;;1.10;;
19260;SDS011;9764;48.114;11.670;2023-04-06T14:41:19;2.45;;;1.30;;
19260;SDS011;9764;48.114;11.670;2023-04-06T14:43:48;2.25;;;1.20;;
19260;SDS011;9764;48.114;11.670;2023-04-06T14:46:20;1.30;;;1.20;;
19260;SDS011;9764;48.114;11.670;2023-04-06T14:48:48;1.50;;;1.40;;
19260;SDS011;9764;48.114;11.670;2023-04-06T14:51:17;1.50;;;1.13;;
19260;SDS011;9764;48.114;11.670;2023-04-06T14:53:45;1.30;;;1.20;;
19260;SDS011;9764;48.114;11.670;2023-04-06T14:56:18;1.38;;;1.20;;
19260;SDS011;9764;48.114;11.670;2023-04-06T14:58:47;1.42;;;1.10;;
19260;SDS011;9764;48.114;11.670;2023-04-06T15:01:16;1.20;;;1.10;;
19260;SDS011;9764;48.114;11.670;2023-04-06T15:03:46;1.45;;;1.10;;
19260;SDS011;9764;48.114;11.670;2023-04-06T15:06:17;1.40;;;1.15;;
19260;SDS011;9764;48.114;11.670;2023-04-06T15:08:47;2.00;;;1.20;;